createdAt,value
2023-03-30T00:02:24.819Z,87.45
2023-03-30T00:04:54.234Z,87.70
2023-03-30T00:07:22.118Z,87.62
2023-03-30T00:09:50.547Z,87.68
2023-03-30T00:12:20.721Z,87.84
2023-03-30T00:14:49.017Z,87.76
2023-03-30T00:17:17.731Z,87.67
2023-03-30T00:19:46.026Z,87.79
2023-03-30T00:22:15.486Z,87.96
2023-03-30T00:24:43.690Z,87.94
2023-03-30T00:27:11.735Z,87.82
2023-03-30T00:29:39.632Z,87.98
2023-03-30T00:32:07.973Z,88.04
2023-03-30T00:34:36.565Z,87.96
2023-03-30T00:37:07.095Z,87.87
2023-03-30T00:39:36.807Z,87.87
2023-03-30T00:42:05.422Z,87.95
2023-03-30T00:45:11.277Z,87.96
2023-03-30T00:47:46.431Z,87.87
2023-03-30T00:50:15.426Z,87.87
2023-03-30T00:52:46.696Z,87.75
2023-03-30T00:55:19.870Z,87.81
2023-03-30T00:57:51.304Z,87.57
2023-03-30T01:00:20.517Z,87.77
2023-03-30T01:02:56.919Z,88.07
2023-03-30T01:05:25.937Z,87.94
2023-03-30T01:07:54.186Z,87.88
2023-03-30T01:10:25.676Z,87.92
2023-03-30T01:12:55.527Z,87.85
2023-03-30T01:15:25.438Z,87.59
2023-03-30T01:18:13.540Z,87.82
2023-03-30T01:21:04.440Z,87.75
2023-03-30T01:24:09.959Z,87.66
2023-03-30T01:26:55.517Z,87.75
2023-03-30T01:30:03.471Z,87.84
2023-03-30T01:33:11.302Z,87.59
2023-03-30T01:35:59.845Z,87.26
2023-03-30T01:39:10.556Z,87.77
2023-03-30T01:41:48.374Z,87.83
2023-03-30T01:44:25.362Z,88.17
2023-03-30T01:46:59.972Z,87.93
2023-03-30T01:49:33.132Z,88.44
2023-03-30T01:52:07.755Z,87.97
2023-03-30T01:54:40.565Z,88.03
2023-03-30T01:57:16.590Z,88.19
2023-03-30T01:59:50.790Z,88.48
2023-03-30T02:02:22.290Z,88.29
2023-03-30T02:04:55.681Z,88.46
2023-03-30T02:07:28.396Z,88.32
2023-03-30T02:10:02.489Z,88.76
2023-03-30T02:12:33.747Z,88.94
2023-03-30T02:15:04.812Z,88.67
2023-03-30T02:17:33.978Z,88.79
2023-03-30T02:20:02.296Z,88.83
2023-03-30T02:22:32.644Z,88.86
2023-03-30T02:25:01.411Z,88.89
2023-03-30T02:27:32.059Z,89.02
2023-03-30T02:30:00.217Z,88.71
2023-03-30T02:32:33.497Z,88.85
2023-03-30T02:35:24.963Z,88.77
2023-03-30T02:38:17.353Z,88.80
2023-03-30T02:40:56.306Z,88.58
2023-03-30T02:43:40.716Z,88.54
2023-03-30T02:46:25.272Z,88.65
2023-03-30T02:49:02.761Z,88.76
2023-03-30T02:51:42.523Z,88.58
2023-03-30T02:54:24.514Z,88.85
2023-03-30T02:57:03.688Z,88.62
2023-03-30T02:59:38.825Z,88.63
2023-03-30T03:02:15.393Z,88.72
2023-03-30T03:04:46.446Z,88.73
2023-03-30T03:07:15.523Z,88.69
2023-03-30T03:09:44.788Z,88.63
2023-03-30T03:12:12.827Z,88.56
2023-03-30T03:14:43.236Z,88.61
2023-03-30T03:17:14.103Z,88.43
2023-03-30T03:19:42.686Z,88.46
2023-03-30T03:22:11.276Z,88.58
2023-03-30T03:24:40.818Z,88.69
2023-03-30T03:27:09.004Z,88.59
2023-03-30T03:29:40.809Z,88.46
2023-03-30T03:32:10.176Z,88.38
2023-03-30T03:34:39.820Z,88.31
2023-03-30T03:37:07.658Z,88.37
2023-03-30T03:39:37.798Z,88.38
2023-03-30T03:42:06.532Z,88.69
2023-03-30T03:44:34.688Z,88.45
2023-03-30T03:47:03.233Z,88.64
2023-03-30T03:49:32.509Z,88.69
2023-03-30T03:52:00.606Z,88.62
2023-03-30T03:54:29.041Z,88.62
2023-03-30T03:56:57.509Z,88.55
2023-03-30T03:59:25.838Z,88.49
2023-03-30T04:01:54.115Z,88.98
2023-03-30T04:04:22.213Z,88.95
2023-03-30T04:06:54.081Z,88.80
2023-03-30T04:09:23.498Z,88.44
2023-03-30T04:11:51.781Z,88.88
2023-03-30T04:14:19.825Z,88.44
2023-03-30T04:16:49.354Z,88.51
2023-03-30T04:19:17.818Z,88.25
2023-03-30T04:21:47.100Z,88.46
2023-03-30T04:24:18.490Z,88.26
2023-03-30T04:26:49.035Z,87.77
2023-03-30T04:29:17.947Z,87.95
2023-03-30T04:31:51.294Z,88.01
2023-03-30T04:34:22.054Z,88.01
2023-03-30T04:36:50.110Z,87.87
2023-03-30T04:39:21.083Z,88.15
2023-03-30T04:41:50.800Z,88.08
2023-03-30T04:44:20.576Z,88.03
2023-03-30T04:46:49.187Z,88.18
2023-03-30T04:49:17.328Z,88.47
2023-03-30T04:51:46.555Z,88.62
2023-03-30T04:54:16.354Z,88.57
2023-03-30T04:56:46.135Z,88.90
2023-03-30T04:59:16.629Z,88.95
2023-03-30T05:01:45.577Z,89.00
2023-03-30T05:04:17.598Z,89.09
2023-03-30T05:06:45.840Z,89.01
2023-03-30T05:09:14.852Z,89.30
2023-03-30T05:11:43.240Z,89.36
2023-03-30T05:14:13.029Z,89.40
2023-03-30T05:16:41.629Z,89.15
2023-03-30T05:19:09.874Z,89.14
2023-03-30T05:21:37.810Z,89.00
2023-03-30T05:24:06.674Z,89.52
2023-03-30T05:26:35.105Z,89.08
2023-03-30T05:29:03.168Z,89.18
2023-03-30T05:31:32.831Z,89.42
2023-03-30T05:34:00.988Z,89.33
2023-03-30T05:36:28.849Z,89.12
2023-03-30T05:38:58.426Z,88.99
2023-03-30T05:41:28.129Z,88.83
2023-03-30T05:43:56.167Z,89.20
2023-03-30T05:46:24.715Z,89.17
2023-03-30T05:48:54.598Z,88.97
2023-03-30T05:51:22.547Z,88.65
2023-03-30T05:53:50.469Z,88.98
2023-03-30T05:56:18.376Z,88.70
2023-03-30T05:58:46.434Z,88.80
2023-03-30T06:01:19.249Z,88.65
2023-03-30T06:03:47.838Z,88.39
2023-03-30T06:06:19.235Z,88.43
2023-03-30T06:08:47.319Z,88.19
2023-03-30T06:11:17.563Z,88.00
2023-03-30T06:13:45.590Z,88.00
2023-03-30T06:16:13.534Z,87.82
2023-03-30T06:18:43.241Z,87.62
2023-03-30T06:21:11.920Z,87.54
2023-03-30T06:23:42.690Z,87.75
2023-03-30T06:26:11.532Z,87.60
2023-03-30T06:28:39.531Z,87.85
2023-03-30T06:31:12.025Z,87.99
2023-03-30T06:33:41.892Z,87.42
2023-03-30T06:36:13.442Z,87.23
2023-03-30T06:38:43.803Z,87.25
2023-03-30T06:41:12.877Z,87.27
2023-03-30T06:43:41.230Z,87.53
2023-03-30T06:46:11.437Z,87.00
2023-03-30T06:48:42.065Z,86.83
2023-03-30T06:51:10.507Z,86.72
2023-03-30T06:53:39.869Z,86.30
2023-03-30T06:56:10.624Z,86.08
2023-03-30T06:58:39.046Z,85.77
2023-03-30T07:01:11.639Z,85.67
2023-03-30T07:03:41.264Z,85.45
2023-03-30T07:06:10.567Z,85.62
2023-03-30T07:08:38.895Z,85.21
2023-03-30T07:11:09.399Z,84.99
2023-03-30T07:13:37.939Z,84.73
2023-03-30T07:16:08.097Z,84.54
2023-03-30T07:18:36.248Z,84.31
2023-03-30T07:21:04.823Z,84.23
2023-03-30T07:23:33.494Z,83.98
2023-03-30T07:26:01.590Z,83.65
2023-03-30T07:28:30.883Z,83.49
2023-03-30T07:31:07.147Z,82.66
2023-03-30T07:33:38.233Z,82.93
2023-03-30T07:36:07.457Z,83.31
2023-03-30T07:38:35.378Z,83.64
2023-03-30T07:41:08.481Z,83.12
2023-03-30T07:43:38.109Z,82.55
2023-03-30T07:46:06.465Z,82.47
2023-03-30T07:48:34.863Z,82.94
2023-03-30T07:51:04.868Z,82.90
2023-03-30T07:53:33.261Z,81.67
2023-03-30T07:56:01.976Z,82.06
2023-03-30T07:58:30.581Z,81.24
2023-03-30T08:01:03.446Z,81.06
2023-03-30T08:03:33.395Z,80.72
2023-03-30T08:06:17.051Z,81.01
2023-03-30T08:08:44.984Z,81.76
2023-03-30T08:11:15.953Z,80.09
2023-03-30T08:13:44.566Z,78.88
2023-03-30T08:16:13.966Z,77.64
2023-03-30T08:18:42.678Z,76.34
2023-03-30T08:21:11.497Z,75.48
2023-03-30T08:23:39.596Z,74.38
2023-03-30T08:26:07.957Z,73.70
2023-03-30T08:28:36.767Z,73.68
2023-03-30T08:31:06.614Z,73.12
2023-03-30T08:33:38.229Z,72.77
2023-03-30T08:36:06.764Z,72.65
2023-03-30T08:38:34.693Z,71.84
2023-03-30T08:41:03.311Z,71.06
2023-03-30T08:43:49.013Z,70.49
2023-03-30T08:46:19.723Z,70.74
2023-03-30T08:48:50.635Z,70.23
2023-03-30T08:51:24.912Z,70.02
2023-03-30T08:53:57.569Z,69.84
2023-03-30T08:56:32.087Z,69.71
2023-03-30T08:59:10.449Z,69.41
2023-03-30T09:01:47.514Z,68.97
2023-03-30T09:04:28.471Z,68.27
2023-03-30T09:07:03.593Z,68.37
2023-03-30T09:09:33.761Z,68.52
2023-03-30T09:12:08.993Z,68.14
2023-03-30T09:14:41.841Z,68.23
2023-03-30T09:17:17.350Z,67.07
2023-03-30T09:19:57.140Z,66.27
2023-03-30T09:22:33.509Z,66.09
2023-03-30T09:25:03.903Z,66.24
2023-03-30T09:27:43.552Z,65.64
2023-03-30T09:30:20.399Z,65.19
2023-03-30T09:32:59.724Z,65.66
2023-03-30T09:35:36.463Z,65.43
2023-03-30T09:38:05.863Z,65.47
2023-03-30T09:41:13.429Z,64.26
2023-03-30T09:43:44.458Z,65.45
2023-03-30T09:46:20.195Z,64.80
2023-03-30T09:48:52.019Z,64.60
2023-03-30T09:51:24.124Z,64.65
2023-03-30T09:53:55.468Z,64.62
2023-03-30T09:56:29.382Z,63.99
2023-03-30T09:58:57.399Z,64.99
2023-03-30T10:01:38.338Z,64.29
2023-03-30T10:04:09.763Z,64.12
2023-03-30T10:06:48.006Z,63.17
2023-03-30T10:09:16.707Z,62.80
2023-03-30T10:11:47.076Z,63.06
2023-03-30T10:14:29.017Z,62.29
2023-03-30T10:16:58.691Z,63.09
2023-03-30T10:19:26.762Z,62.94
2023-03-30T10:21:58.948Z,62.84
2023-03-30T10:24:31.657Z,62.54
2023-03-30T10:27:05.851Z,62.34
2023-03-30T10:29:34.016Z,62.50
2023-03-30T10:32:09.748Z,62.80
2023-03-30T10:34:40.526Z,62.69
2023-03-30T10:37:13.434Z,61.90
2023-03-30T10:39:45.385Z,61.58
2023-03-30T10:42:19.186Z,61.31
2023-03-30T10:44:51.408Z,61.56
2023-03-30T10:47:42.515Z,61.12
2023-03-30T10:50:19.842Z,61.24
2023-03-30T10:52:59.766Z,60.77
2023-03-30T10:55:35.678Z,61.18
2023-03-30T10:58:14.490Z,60.76
2023-03-30T11:00:58.432Z,60.07
2023-03-30T11:03:29.470Z,60.09
2023-03-30T11:06:03.513Z,60.05
2023-03-30T11:08:38.384Z,59.72
2023-03-30T11:11:08.248Z,59.72
2023-03-30T11:13:41.657Z,59.60
2023-03-30T11:16:16.219Z,59.59
2023-03-30T11:18:51.397Z,59.83
2023-03-30T11:21:22.786Z,59.98
2023-03-30T11:23:55.238Z,59.82
2023-03-30T11:26:29.957Z,60.21
2023-03-30T11:29:08.113Z,60.86
2023-03-30T11:31:50.248Z,60.88
2023-03-30T11:34:28.402Z,60.99
2023-03-30T11:37:05.269Z,61.28
2023-03-30T11:39:38.388Z,61.14
2023-03-30T11:42:15.841Z,61.11
2023-03-30T11:44:44.570Z,61.48
2023-03-30T11:47:47.441Z,61.69
2023-03-30T11:50:30.148Z,61.62
2023-03-30T11:53:12.785Z,61.33
2023-03-30T11:55:56.138Z,61.93
2023-03-30T11:58:33.382Z,61.66
2023-03-30T12:01:15.223Z,62.06
2023-03-30T12:03:45.325Z,62.50
2023-03-30T12:06:30.006Z,62.15
2023-03-30T12:09:28.968Z,62.41
2023-03-30T12:12:10.533Z,62.43
2023-03-30T12:14:55.065Z,63.01
2023-03-30T12:17:34.392Z,62.71
2023-03-30T12:20:11.356Z,62.34
2023-03-30T12:22:45.149Z,62.81
2023-03-30T12:25:27.709Z,62.57
2023-03-30T12:28:05.380Z,63.36
2023-03-30T12:30:44.947Z,62.99
2023-03-30T12:33:14.897Z,63.11
2023-03-30T12:35:58.776Z,63.25
2023-03-30T12:38:30.124Z,63.22
2023-03-30T12:41:14.301Z,63.09
2023-03-30T12:44:03.500Z,63.27
2023-03-30T12:46:38.167Z,63.45
2023-03-30T12:49:16.546Z,63.38
2023-03-30T12:52:04.196Z,63.97
2023-03-30T12:54:54.527Z,63.82
2023-03-30T12:57:37.567Z,63.84
2023-03-30T13:00:33.031Z,64.46
2023-03-30T13:03:23.517Z,64.67
2023-03-30T13:05:54.685Z,64.18
2023-03-30T13:08:31.607Z,64.13
2023-03-30T13:11:13.296Z,64.48
2023-03-30T13:13:51.359Z,64.24
2023-03-30T13:17:07.351Z,63.96
2023-03-30T13:20:15.441Z,64.25
2023-03-30T13:23:16.658Z,64.93
2023-03-30T13:25:49.862Z,64.79
2023-03-30T13:28:45.462Z,65.01
2023-03-30T13:31:25.745Z,65.31
2023-03-30T13:34:03.663Z,65.80
2023-03-30T13:36:36.830Z,65.05
2023-03-30T13:39:13.930Z,65.91
2023-03-30T13:41:53.913Z,65.68
2023-03-30T13:44:39.306Z,66.14
2023-03-30T13:47:22.911Z,66.81
2023-03-30T13:50:03.137Z,66.44
2023-03-30T13:52:38.266Z,66.59
2023-03-30T13:55:16.181Z,66.94
2023-03-30T13:57:45.298Z,66.89
2023-03-30T14:00:33.606Z,66.72
2023-03-30T14:03:16.714Z,67.28
2023-03-30T14:05:46.045Z,67.02
2023-03-30T14:08:14.173Z,67.79
2023-03-30T14:10:43.093Z,67.95
2023-03-30T14:13:14.733Z,68.00
2023-03-30T14:15:46.590Z,68.07
2023-03-30T14:18:24.427Z,68.18
2023-03-30T14:20:57.864Z,68.56
2023-03-30T14:23:33.760Z,68.51
2023-03-30T14:26:04.521Z,68.01
2023-03-30T14:28:38.012Z,68.74
2023-03-30T14:31:13.766Z,68.59
2023-03-30T14:33:42.294Z,68.99
2023-03-30T14:36:13.116Z,69.08
2023-03-30T14:38:43.581Z,68.97
2023-03-30T14:41:16.568Z,69.13
2023-03-30T14:43:51.508Z,69.62
2023-03-30T14:46:19.679Z,69.80
2023-03-30T14:48:50.670Z,69.87
2023-03-30T14:51:29.925Z,70.20
2023-03-30T14:54:00.550Z,70.51
2023-03-30T14:56:29.806Z,70.45
2023-03-30T14:58:58.612Z,70.09
2023-03-30T15:01:32.361Z,70.99
2023-03-30T15:04:03.365Z,71.07
2023-03-30T15:06:33.703Z,70.66
2023-03-30T15:09:03.266Z,70.57
2023-03-30T15:11:34.555Z,70.75
2023-03-30T15:14:06.110Z,71.30
2023-03-30T15:16:35.974Z,71.07
2023-03-30T15:19:07.804Z,70.99
2023-03-30T15:21:38.753Z,71.83
2023-03-30T15:24:08.884Z,71.94
2023-03-30T15:26:44.592Z,72.19
2023-03-30T15:29:13.848Z,71.59
2023-03-30T15:31:44.665Z,71.47
2023-03-30T15:34:16.935Z,71.78
2023-03-30T15:36:53.437Z,71.63
2023-03-30T15:39:25.877Z,71.51
2023-03-30T15:42:01.652Z,71.81
2023-03-30T15:44:30.067Z,72.05
2023-03-30T15:47:01.373Z,71.72
2023-03-30T15:49:40.839Z,71.68
2023-03-30T15:52:14.864Z,71.58
2023-03-30T15:54:47.619Z,71.75
2023-03-30T15:57:21.450Z,72.13
2023-03-30T15:59:52.194Z,72.47
2023-03-30T16:02:22.743Z,71.77
2023-03-30T16:04:51.670Z,72.33
2023-03-30T16:07:24.770Z,72.83
2023-03-30T16:09:53.457Z,72.70
2023-03-30T16:12:26.718Z,72.31
2023-03-30T16:14:55.431Z,72.19
2023-03-30T16:17:23.500Z,72.37
2023-03-30T16:19:51.323Z,72.50
2023-03-30T16:22:20.784Z,72.45
2023-03-30T16:24:48.644Z,72.39
2023-03-30T16:27:16.706Z,72.66
2023-03-30T16:29:44.552Z,73.14
2023-03-30T16:32:12.368Z,73.06
2023-03-30T16:34:43.080Z,73.14
2023-03-30T16:37:11.497Z,73.20
2023-03-30T16:39:40.679Z,73.67
2023-03-30T16:42:08.620Z,73.75
2023-03-30T16:44:36.858Z,73.91
2023-03-30T16:47:05.022Z,74.00
2023-03-30T16:49:33.031Z,74.00
2023-03-30T16:52:02.071Z,74.59
2023-03-30T16:54:32.431Z,74.40
2023-03-30T16:57:02.597Z,74.64
2023-03-30T16:59:32.416Z,74.70
2023-03-30T17:02:00.731Z,74.55
2023-03-30T17:04:28.652Z,74.99
2023-03-30T17:06:56.704Z,74.81
2023-03-30T17:09:24.657Z,74.77
2023-03-30T17:11:52.813Z,75.09
2023-03-30T17:14:23.338Z,75.43
2023-03-30T17:16:51.516Z,75.20
2023-03-30T17:19:19.461Z,75.72
2023-03-30T17:21:47.539Z,75.43
2023-03-30T17:24:16.996Z,75.84
2023-03-30T17:26:46.362Z,75.75
2023-03-30T17:29:14.239Z,76.02
2023-03-30T17:31:45.834Z,75.78
2023-03-30T17:34:15.007Z,76.20
2023-03-30T17:36:43.438Z,76.43
2023-03-30T17:39:13.919Z,76.57
2023-03-30T17:41:42.418Z,76.86
2023-03-30T17:44:10.323Z,76.34
2023-03-30T17:46:38.224Z,77.00
2023-03-30T17:49:17.123Z,77.30
2023-03-30T17:51:44.975Z,77.03
2023-03-30T17:54:12.913Z,77.23
2023-03-30T17:56:41.212Z,77.24
2023-03-30T17:59:11.304Z,77.09
2023-03-30T18:01:39.333Z,77.30
2023-03-30T18:04:16.440Z,77.38
2023-03-30T18:06:44.456Z,77.45
2023-03-30T18:09:16.213Z,77.65
2023-03-30T18:11:44.194Z,77.99
2023-03-30T18:14:12.429Z,78.24
2023-03-30T18:16:43.800Z,77.99
2023-03-30T18:19:13.674Z,78.37
2023-03-30T18:21:43.137Z,78.54
2023-03-30T18:24:10.998Z,78.34
2023-03-30T18:26:41.011Z,78.28
2023-03-30T18:29:20.314Z,78.56
2023-03-30T18:31:49.509Z,78.50
2023-03-30T18:34:19.672Z,79.09
2023-03-30T18:36:47.608Z,79.13
2023-03-30T18:39:19.816Z,78.77
2023-03-30T18:41:47.760Z,79.19
2023-03-30T18:44:15.681Z,79.23
2023-03-30T18:46:44.571Z,79.59
2023-03-30T18:49:15.143Z,79.06
2023-03-30T18:51:44.525Z,79.12
2023-03-30T18:54:12.471Z,79.33
2023-03-30T18:56:40.485Z,79.78
2023-03-30T18:59:10.664Z,79.69
2023-03-30T19:01:41.441Z,79.81
2023-03-30T19:04:09.477Z,79.31
2023-03-30T19:06:37.705Z,79.98
2023-03-30T19:09:07.090Z,79.89
2023-03-30T19:11:35.072Z,80.00
2023-03-30T19:14:04.624Z,80.05
2023-03-30T19:16:32.525Z,79.73
2023-03-30T19:19:00.676Z,80.37
2023-03-30T19:21:28.884Z,80.10
2023-03-30T19:23:56.754Z,80.53
2023-03-30T19:26:28.335Z,80.12
2023-03-30T19:28:56.209Z,80.17
2023-03-30T19:31:24.232Z,80.09
2023-03-30T19:33:52.387Z,80.20
2023-03-30T19:36:24.696Z,80.60
2023-03-30T19:38:53.042Z,79.95
2023-03-30T19:41:21.204Z,79.86
2023-03-30T19:43:52.925Z,79.90
2023-03-30T19:46:22.061Z,79.82
2023-03-30T19:48:50.110Z,80.11
2023-03-30T19:51:19.265Z,79.87
2023-03-30T19:53:48.974Z,80.02
2023-03-30T19:56:16.906Z,79.99
2023-03-30T19:58:44.955Z,79.71
2023-03-30T20:01:14.583Z,79.34
2023-03-30T20:03:42.615Z,79.11
2023-03-30T20:06:12.746Z,79.32
2023-03-30T20:08:43.399Z,79.01
2023-03-30T20:11:12.534Z,78.53
2023-03-30T20:13:45.713Z,78.92
2023-03-30T20:16:22.424Z,78.59
2023-03-30T20:18:52.172Z,78.30
2023-03-30T20:21:21.788Z,77.95
2023-03-30T20:23:50.229Z,78.72
2023-03-30T20:26:19.581Z,78.50
2023-03-30T20:28:48.084Z,78.46
2023-03-30T20:31:17.808Z,78.13
2023-03-30T20:33:46.103Z,77.89
2023-03-30T20:36:14.393Z,78.31
2023-03-30T20:38:45.907Z,78.27
2023-03-30T20:41:14.386Z,78.11
2023-03-30T20:43:56.496Z,78.26
2023-03-30T20:46:35.161Z,78.41
2023-03-30T20:49:03.932Z,78.30
2023-03-30T20:51:33.543Z,78.13
2023-03-30T20:54:01.719Z,77.88
2023-03-30T20:56:29.684Z,77.94
2023-03-30T20:58:59.963Z,77.57
2023-03-30T21:01:30.485Z,77.95
2023-03-30T21:04:00.177Z,77.59
2023-03-30T21:06:30.114Z,77.86
2023-03-30T21:09:00.431Z,77.44
2023-03-30T21:11:31.441Z,77.57
2023-03-30T21:13:59.519Z,77.67
2023-03-30T21:16:27.596Z,77.14
2023-03-30T21:18:59.713Z,76.85
2023-03-30T21:21:27.915Z,77.01
2023-03-30T21:23:57.505Z,77.11
2023-03-30T21:26:26.590Z,76.99
2023-03-30T21:28:54.901Z,76.64
2023-03-30T21:31:23.037Z,76.67
2023-03-30T21:33:51.180Z,76.59
2023-03-30T21:36:20.712Z,76.59
2023-03-30T21:38:48.778Z,76.86
2023-03-30T21:41:18.613Z,76.54
2023-03-30T21:43:49.456Z,76.90
2023-03-30T21:46:19.454Z,77.16
2023-03-30T21:48:50.492Z,76.88
2023-03-30T21:51:23.045Z,77.00
2023-03-30T21:53:52.354Z,77.00
2023-03-30T21:56:22.614Z,77.14
2023-03-30T21:58:50.980Z,76.73
2023-03-30T22:01:20.770Z,76.36
2023-03-30T22:03:48.733Z,76.63
2023-03-30T22:06:22.336Z,76.68
2023-03-30T22:08:52.082Z,76.95
2023-03-30T22:11:22.151Z,76.58
2023-03-30T22:13:57.331Z,76.92
2023-03-30T22:16:31.622Z,76.72
2023-03-30T22:18:59.873Z,77.02
2023-03-30T22:21:34.497Z,76.78
2023-03-30T22:24:06.048Z,76.84
2023-03-30T22:26:35.682Z,76.92
2023-03-30T22:29:03.639Z,76.96
2023-03-30T22:31:31.557Z,76.70
2023-03-30T22:33:59.695Z,76.29
2023-03-30T22:36:30.089Z,76.93
2023-03-30T22:38:59.841Z,76.81
2023-03-30T22:41:29.608Z,76.76
2023-03-30T22:43:59.338Z,77.03
2023-03-30T22:46:28.162Z,76.67
2023-03-30T22:48:56.812Z,76.78
2023-03-30T22:51:26.225Z,76.88
2023-03-30T22:53:56.317Z,76.71
2023-03-30T22:56:25.933Z,77.11
2023-03-30T22:58:55.455Z,76.60
2023-03-30T23:01:23.787Z,76.97
2023-03-30T23:03:53.464Z,76.84
2023-03-30T23:06:21.789Z,77.30
2023-03-30T23:08:49.628Z,76.95
2023-03-30T23:11:21.907Z,76.65
2023-03-30T23:13:50.053Z,76.52
2023-03-30T23:16:19.399Z,76.66
2023-03-30T23:18:47.519Z,76.87
2023-03-30T23:21:15.399Z,76.61
2023-03-30T23:23:44.005Z,76.55
2023-03-30T23:26:13.252Z,76.50
2023-03-30T23:28:43.575Z,76.75
2023-03-30T23:31:13.247Z,76.35
2023-03-30T23:33:43.236Z,76.36
2023-03-30T23:36:13.645Z,76.66
2023-03-30T23:38:41.955Z,76.44
2023-03-30T23:41:13.321Z,76.43
2023-03-30T23:43:41.419Z,76.85
2023-03-30T23:46:10.505Z,77.01
2023-03-30T23:48:40.521Z,76.88
2023-03-30T23:51:10.232Z,76.77
2023-03-30T23:53:40.375Z,76.71
2023-03-30T23:56:13.112Z,76.75
2023-03-30T23:58:46.685Z,76.95
